Flight Track Log - Related Links

Times and Time Zones

All times are in EDT time to prevent confusion due to time zone crossing. See the OPT429 flight status page for this flight to view local times or setup timezone preferences in your user account.

Time Position Orientation Groundspeed Altitude Reporting Facility
EDT Latitude Longitude Course Direction KTS MPH feet Rate Location/Type
Sat 12:31:57 PM 41.5575 -81.5000 198° South 147 169 1,500  Level Cleveland Center
Sat 12:32:52 PM 41.5214 -81.5161 198° South 197 227 3,100 2,513 Climbing Cleveland Center
Sat 12:33:54 PM 41.4603 -81.5022 170° South 213 245 6,400 3,048 Climbing Cleveland Center
Sat 12:34:56 PM 41.3989 -81.4586 152° Southeast 254 292 9,400 2,661 Climbing Cleveland Center
Sat 12:35:58 PM 41.3553 -81.3681 123° Southeast 284 327 11,900 2,371 Climbing Cleveland Center
Sat 12:37:00 PM 41.3083 -81.2631 121° Southeast 320 368 14,300 2,565 Climbing Cleveland Center
Sat 12:38:02 PM 41.2503 -81.1342 121° Southeast 338 389 17,200 2,371 Climbing Cleveland Center
Sat 12:39:04 PM 41.1981 -81.0222 122° Southeast 349 402 19,200 2,081 Climbing Cleveland Center
Sat 12:40:06 PM 41.1458 -80.9067 121° Southeast 358 412 21,500 2,032 Climbing Cleveland Center
Sat 12:41:08 PM 41.0936 -80.7933 121° Southeast 366 421 23,400 1,790 Climbing Cleveland Center
Sat 12:42:10 PM 41.0375 -80.6719 121° Southeast 385 443 25,200 1,548 Climbing Cleveland Center
Sat 12:43:12 PM 40.9786 -80.5447 121° Southeast 404 465 26,600 871 Climbing Cleveland Center
Sat 12:44:14 PM 40.9022 -80.3789 121° Southeast 440 506 27,000 194 Climbing Cleveland Center
Sat 12:45:16 PM 40.8392 -80.2431 122° Southeast 460 529 27,000  Level Cleveland Center
Sat 12:46:17 PM 40.8047 -80.0842 106° East 462 532 27,000  Level Cleveland Center
Sat 12:47:19 PM 40.7781 -79.9056 101° East 457 526 27,000 -290 Level Cleveland Center
Sat 12:48:21 PM 40.7531 -79.7403 101° East 455 524 26,400 -823 Descending Cleveland Center
Sat 12:49:23 PM 40.7261 -79.5717 102° East 464 534 25,300 -1,065 Descending Cleveland Center
Sat 12:50:25 PM 40.6997 -79.4036 102° East 465 535 24,200 -1,016 Descending Cleveland Center
Sat 12:51:27 PM 40.6719 -79.2369 102° East 465 535 23,200 -581 Descending Cleveland Center
Sat 12:52:29 PM 40.6417 -79.0456 102° East 451 519 23,000 -97 Descending Cleveland Center
Sat 12:53:31 PM 40.6153 -78.8883 102° East 437 503 23,000  Level Cleveland Center
Sat 12:54:33 PM 40.5911 -78.7392 102° East 429 494 23,000  Level Cleveland Center
Sat 12:55:35 PM 40.5661 -78.5897 102° East 428 493 23,000  Level Cleveland Center
Sat 12:56:37 PM 40.5406 -78.4367 102° East 431 496 23,000  Level Cleveland Center
Sat 12:57:39 PM 40.5114 -78.2556 102° East 431 496 23,000 -871 Level Cleveland Center
Sat 12:58:41 PM 40.4839 -78.1031 103° East 433 498 21,200 -1,776 Descending Cleveland Center
Sat 12:59:44 PM 40.4578 -77.9458 102° East 443 510 19,300 -1,680 Descending Cleveland Center
Sat 01:00:46 PM 40.4322 -77.7947 102° East 432 497 17,700 -1,887 Descending Cleveland Center
Sat 01:01:48 PM 40.4017 -77.6228 103° East 410 472 15,400 -2,043 Descending Cleveland Center
Sat 01:02:20 PM 40.3875 -77.5564 106° East 403 464 14,500 -1,978 Descending New York Center
Sat 01:03:19 PM 40.3639 -77.4233 103° East 382 440 12,400 -1,978 Descending New York Center
Sat 01:03:51 PM 40.3553 -77.3600 100° East 365 420 11,500 -1,742 Descending Cleveland Center
Sat 01:04:21 PM 40.3433 -77.3017 105° East 360 414 10,600 -2,045 Descending New York Center
Sat 01:05:19 PM 40.2872 -77.2228 133° Southeast 292 336 8,500 -1,866 Descending New York Center
Sat 01:06:20 PM 40.2219 -77.1622 145° Southeast 292 336 6,900 -1,613 Descending New York Center
Sat 01:07:18 PM 40.1625 -77.1025 142° Southeast 280 322 5,300 -1,475 Descending New York Center
Sat 01:08:18 PM 40.1031 -77.0456 144° Southeast 273 314 4,000 -1,082 Descending New York Center
Sat 01:09:20 PM 40.0453 -76.9914 144° Southeast 262 302 3,100 -645 Descending New York Center
Sat 01:10:19 PM 39.9931 -76.9544 152° Southeast 254 292 2,700 -610 Descending New York Center
Sat 01:11:18 PM 39.9325 -76.9192 156° South 223 257 1,900 -397 Descending New York Center
Sat 01:12:20 PM 39.8914 -76.9047 165° South 187 215 1,900 -295 Level New York Center
Sat 01:13:20 PM 39.8856 -76.8583 99° East 105 121 1,300 -655 Descending New York Center
Sat 01:14:19 PM 39.9100 -76.8683 343° North 77 89 600 -712 Descending New York Center
Sat 01:16:00 PM 39.9167 -76.8667 339° North  Level FlightAware Approximate

Login

Don't have an account? Register now (free) for customized features, flight alerts, and more!